sensor_id;sensor_type;location;lat;lon;timestamp;P1;durP1;ratioP1;P2;durP2;ratioP2
65853;SDS011;52627;48.838;2.402;2022-11-20T00:01:27;9.40;;;3.00;;
65853;SDS011;52627;48.838;2.402;2022-11-20T00:03:56;6.30;;;2.50;;
65853;SDS011;52627;48.838;2.402;2022-11-20T00:06:26;7.80;;;2.70;;
65853;SDS011;52627;48.838;2.402;2022-11-20T00:08:55;8.60;;;2.90;;
65853;SDS011;52627;48.838;2.402;2022-11-20T00:11:25;5.70;;;2.80;;
65853;SDS011;52627;48.838;2.402;2022-11-20T00:13:55;8.00;;;2.40;;
65853;SDS011;52627;48.838;2.402;2022-11-20T00:16:27;7.20;;;2.50;;
65853;SDS011;52627;48.838;2.402;2022-11-20T00:18:54;6.70;;;3.00;;
65853;SDS011;52627;48.838;2.402;2022-11-20T00:21:24;7.00;;;2.50;;
65853;SDS011;52627;48.838;2.402;2022-11-20T00:23:54;6.30;;;2.80;;
65853;SDS011;52627;48.838;2.402;2022-11-20T00:26:23;6.10;;;2.50;;
65853;SDS011;52627;48.838;2.402;2022-11-20T00:28:54;6.00;;;3.20;;
65853;SDS011;52627;48.838;2.402;2022-11-20T00:31:22;8.70;;;2.30;;
65853;SDS011;52627;48.838;2.402;2022-11-20T00:33:49;5.70;;;2.70;;
65853;SDS011;52627;48.838;2.402;2022-11-20T00:36:21;5.50;;;2.50;;
65853;SDS011;52627;48.838;2.402;2022-11-20T00:38:54;6.60;;;2.40;;
65853;SDS011;52627;48.838;2.402;2022-11-20T00:41:22;5.60;;;2.40;;
65853;SDS011;52627;48.838;2.402;2022-11-20T00:43:52;7.80;;;2.30;;
65853;SDS011;52627;48.838;2.402;2022-11-20T00:46:27;6.80;;;2.40;;
65853;SDS011;52627;48.838;2.402;2022-11-20T00:48:54;5.70;;;3.00;;
65853;SDS011;52627;48.838;2.402;2022-11-20T00:51:23;6.90;;;2.40;;
65853;SDS011;52627;48.838;2.402;2022-11-20T00:53:51;5.30;;;2.50;;
65853;SDS011;52627;48.838;2.402;2022-11-20T00:56:19;5.60;;;2.40;;
65853;SDS011;52627;48.838;2.402;2022-11-20T00:58:47;8.80;;;2.50;;
65853;SDS011;52627;48.838;2.402;2022-11-20T01:01:24;7.20;;;2.60;;
65853;SDS011;52627;48.838;2.402;2022-11-20T01:03:53;7.60;;;2.80;;
65853;SDS011;52627;48.838;2.402;2022-11-20T01:06:34;6.80;;;2.60;;
65853;SDS011;52627;48.838;2.402;2022-11-20T01:09:10;10.00;;;2.90;;
65853;SDS011;52627;48.838;2.402;2022-11-20T01:11:41;6.80;;;3.00;;
65853;SDS011;52627;48.838;2.402;2022-11-20T01:14:12;5.80;;;2.80;;
65853;SDS011;52627;48.838;2.402;2022-11-20T01:16:47;7.80;;;2.30;;
65853;SDS011;52627;48.838;2.402;2022-11-20T01:19:21;6.90;;;2.50;;
65853;SDS011;52627;48.838;2.402;2022-11-20T01:21:52;7.50;;;2.50;;
65853;SDS011;52627;48.838;2.402;2022-11-20T01:24:21;9.60;;;2.60;;
65853;SDS011;52627;48.838;2.402;2022-11-20T01:26:50;5.90;;;2.60;;
65853;SDS011;52627;48.838;2.402;2022-11-20T01:29:20;5.30;;;2.10;;
65853;SDS011;52627;48.838;2.402;2022-11-20T01:34:18;4.20;;;2.00;;
65853;SDS011;52627;48.838;2.402;2022-11-20T01:36:46;4.60;;;2.10;;
65853;SDS011;52627;48.838;2.402;2022-11-20T01:39:17;5.20;;;2.10;;
65853;SDS011;52627;48.838;2.402;2022-11-20T01:41:46;4.90;;;2.10;;
65853;SDS011;52627;48.838;2.402;2022-11-20T01:44:59;5.20;;;1.80;;
65853;SDS011;52627;48.838;2.402;2022-11-20T01:47:33;4.70;;;1.90;;
65853;SDS011;52627;48.838;2.402;2022-11-20T01:50:24;5.10;;;2.00;;
65853;SDS011;52627;48.838;2.402;2022-11-20T01:53:01;9.00;;;3.50;;
65853;SDS011;52627;48.838;2.402;2022-11-20T01:55:36;6.70;;;2.10;;
65853;SDS011;52627;48.838;2.402;2022-11-20T01:58:06;4.40;;;1.90;;
65853;SDS011;52627;48.838;2.402;2022-11-20T02:00:33;5.70;;;1.80;;
65853;SDS011;52627;48.838;2.402;2022-11-20T02:03:03;5.10;;;1.60;;
65853;SDS011;52627;48.838;2.402;2022-11-20T02:08:21;4.80;;;2.10;;
65853;SDS011;52627;48.838;2.402;2022-11-20T02:10:50;4.50;;;1.90;;
65853;SDS011;52627;48.838;2.402;2022-11-20T02:13:17;7.60;;;2.00;;
65853;SDS011;52627;48.838;2.402;2022-11-20T02:16:03;6.10;;;1.90;;
65853;SDS011;52627;48.838;2.402;2022-11-20T02:18:30;5.50;;;1.90;;
65853;SDS011;52627;48.838;2.402;2022-11-20T02:21:04;7.00;;;2.00;;
65853;SDS011;52627;48.838;2.402;2022-11-20T02:24:09;7.20;;;2.10;;
65853;SDS011;52627;48.838;2.402;2022-11-20T02:27:28;4.70;;;1.90;;
65853;SDS011;52627;48.838;2.402;2022-11-20T02:32:21;9.70;;;2.20;;
65853;SDS011;52627;48.838;2.402;2022-11-20T02:34:51;7.80;;;1.80;;
65853;SDS011;52627;48.838;2.402;2022-11-20T02:37:19;7.60;;;2.00;;
65853;SDS011;52627;48.838;2.402;2022-11-20T02:39:49;3.40;;;1.60;;
65853;SDS011;52627;48.838;2.402;2022-11-20T02:42:17;5.80;;;1.60;;
65853;SDS011;52627;48.838;2.402;2022-11-20T02:44:44;5.50;;;2.00;;
65853;SDS011;52627;48.838;2.402;2022-11-20T02:47:11;7.50;;;2.50;;
65853;SDS011;52627;48.838;2.402;2022-11-20T02:49:37;5.20;;;1.60;;
65853;SDS011;52627;48.838;2.402;2022-11-20T02:52:05;7.10;;;2.10;;
65853;SDS011;52627;48.838;2.402;2022-11-20T02:54:31;5.20;;;1.90;;
65853;SDS011;52627;48.838;2.402;2022-11-20T02:56:58;4.80;;;1.60;;
65853;SDS011;52627;48.838;2.402;2022-11-20T02:59:25;5.20;;;1.80;;
65853;SDS011;52627;48.838;2.402;2022-11-20T03:01:52;4.90;;;1.70;;
65853;SDS011;52627;48.838;2.402;2022-11-20T03:04:18;6.20;;;1.50;;
65853;SDS011;52627;48.838;2.402;2022-11-20T03:06:45;7.10;;;2.10;;
65853;SDS011;52627;48.838;2.402;2022-11-20T03:09:12;4.50;;;1.70;;
65853;SDS011;52627;48.838;2.402;2022-11-20T03:11:39;6.30;;;2.00;;
65853;SDS011;52627;48.838;2.402;2022-11-20T03:14:06;8.20;;;1.60;;
65853;SDS011;52627;48.838;2.402;2022-11-20T03:16:32;4.50;;;1.50;;
65853;SDS011;52627;48.838;2.402;2022-11-20T03:19:00;5.70;;;1.80;;
65853;SDS011;52627;48.838;2.402;2022-11-20T03:21:26;4.30;;;2.10;;
65853;SDS011;52627;48.838;2.402;2022-11-20T03:23:54;7.60;;;2.50;;
65853;SDS011;52627;48.838;2.402;2022-11-20T03:26:23;6.10;;;1.90;;
65853;SDS011;52627;48.838;2.402;2022-11-20T03:28:53;5.30;;;2.40;;
65853;SDS011;52627;48.838;2.402;2022-11-20T03:31:33;8.80;;;2.90;;
65853;SDS011;52627;48.838;2.402;2022-11-20T03:34:02;4.80;;;2.30;;
65853;SDS011;52627;48.838;2.402;2022-11-20T03:36:29;5.80;;;2.30;;
65853;SDS011;52627;48.838;2.402;2022-11-20T03:38:57;9.70;;;3.20;;
65853;SDS011;52627;48.838;2.402;2022-11-20T03:41:26;5.30;;;2.10;;
65853;SDS011;52627;48.838;2.402;2022-11-20T03:44:00;6.90;;;2.30;;
65853;SDS011;52627;48.838;2.402;2022-11-20T03:46:28;7.90;;;2.80;;
65853;SDS011;52627;48.838;2.402;2022-11-20T03:48:55;7.20;;;2.60;;
65853;SDS011;52627;48.838;2.402;2022-11-20T03:51:24;7.70;;;2.90;;
65853;SDS011;52627;48.838;2.402;2022-11-20T03:53:54;6.60;;;2.40;;
65853;SDS011;52627;48.838;2.402;2022-11-20T03:56:25;7.90;;;3.30;;
65853;SDS011;52627;48.838;2.402;2022-11-20T03:58:53;5.60;;;2.90;;
65853;SDS011;52627;48.838;2.402;2022-11-20T04:01:22;7.30;;;2.90;;
65853;SDS011;52627;48.838;2.402;2022-11-20T04:03:52;5.80;;;2.60;;
65853;SDS011;52627;48.838;2.402;2022-11-20T04:06:25;6.70;;;2.80;;
65853;SDS011;52627;48.838;2.402;2022-11-20T04:08:55;5.90;;;2.80;;
65853;SDS011;52627;48.838;2.402;2022-11-20T04:11:28;7.90;;;3.50;;
65853;SDS011;52627;48.838;2.402;2022-11-20T04:13:59;5.70;;;2.80;;
65853;SDS011;52627;48.838;2.402;2022-11-20T04:16:30;5.80;;;2.90;;
65853;SDS011;52627;48.838;2.402;2022-11-20T04:19:03;5.80;;;2.80;;
65853;SDS011;52627;48.838;2.402;2022-11-20T04:21:32;6.80;;;2.70;;
65853;SDS011;52627;48.838;2.402;2022-11-20T04:23:59;7.20;;;2.90;;
65853;SDS011;52627;48.838;2.402;2022-11-20T04:26:28;9.10;;;3.20;;
65853;SDS011;52627;48.838;2.402;2022-11-20T04:28:56;6.10;;;2.80;;
65853;SDS011;52627;48.838;2.402;2022-11-20T04:31:25;6.90;;;3.20;;
65853;SDS011;52627;48.838;2.402;2022-11-20T04:33:53;7.90;;;3.40;;
65853;SDS011;52627;48.838;2.402;2022-11-20T04:36:25;8.60;;;2.80;;
65853;SDS011;52627;48.838;2.402;2022-11-20T04:39:01;5.80;;;2.60;;
65853;SDS011;52627;48.838;2.402;2022-11-20T04:41:32;7.90;;;2.70;;
65853;SDS011;52627;48.838;2.402;2022-11-20T04:44:02;6.10;;;2.70;;
65853;SDS011;52627;48.838;2.402;2022-11-20T04:46:33;6.60;;;2.70;;
65853;SDS011;52627;48.838;2.402;2022-11-20T04:49:01;5.80;;;2.30;;
65853;SDS011;52627;48.838;2.402;2022-11-20T04:51:28;6.60;;;2.50;;
65853;SDS011;52627;48.838;2.402;2022-11-20T04:53:55;8.00;;;2.50;;
65853;SDS011;52627;48.838;2.402;2022-11-20T04:56:22;9.70;;;2.80;;
65853;SDS011;52627;48.838;2.402;2022-11-20T04:58:49;8.70;;;3.10;;
65853;SDS011;52627;48.838;2.402;2022-11-20T05:01:19;6.40;;;2.90;;
65853;SDS011;52627;48.838;2.402;2022-11-20T05:03:50;6.10;;;3.10;;
65853;SDS011;52627;48.838;2.402;2022-11-20T05:06:19;8.30;;;2.90;;
65853;SDS011;52627;48.838;2.402;2022-11-20T05:08:47;6.90;;;3.40;;
65853;SDS011;52627;48.838;2.402;2022-11-20T05:11:17;6.70;;;3.40;;
65853;SDS011;52627;48.838;2.402;2022-11-20T05:16:15;5.80;;;3.30;;
65853;SDS011;52627;48.838;2.402;2022-11-20T05:18:46;10.10;;;3.20;;
65853;SDS011;52627;48.838;2.402;2022-11-20T05:21:13;6.60;;;3.40;;
65853;SDS011;52627;48.838;2.402;2022-11-20T05:23:41;7.40;;;3.60;;
65853;SDS011;52627;48.838;2.402;2022-11-20T05:26:17;8.00;;;3.70;;
65853;SDS011;52627;48.838;2.402;2022-11-20T05:28:46;7.40;;;3.60;;
65853;SDS011;52627;48.838;2.402;2022-11-20T05:31:19;8.70;;;3.70;;
65853;SDS011;52627;48.838;2.402;2022-11-20T05:33:55;9.20;;;3.50;;
65853;SDS011;52627;48.838;2.402;2022-11-20T05:36:23;8.30;;;3.50;;
65853;SDS011;52627;48.838;2.402;2022-11-20T05:38:50;7.70;;;3.20;;
65853;SDS011;52627;48.838;2.402;2022-11-20T05:41:20;7.10;;;3.60;;
65853;SDS011;52627;48.838;2.402;2022-11-20T05:43:48;6.00;;;3.40;;
65853;SDS011;52627;48.838;2.402;2022-11-20T05:46:18;8.70;;;3.80;;
65853;SDS011;52627;48.838;2.402;2022-11-20T05:48:54;13.80;;;4.10;;
65853;SDS011;52627;48.838;2.402;2022-11-20T05:51:21;9.40;;;4.00;;
65853;SDS011;52627;48.838;2.402;2022-11-20T05:53:48;10.30;;;3.60;;
65853;SDS011;52627;48.838;2.402;2022-11-20T05:56:17;7.80;;;3.60;;
65853;SDS011;52627;48.838;2.402;2022-11-20T05:58:45;10.90;;;3.80;;
65853;SDS011;52627;48.838;2.402;2022-11-20T06:01:23;8.30;;;3.90;;
65853;SDS011;52627;48.838;2.402;2022-11-20T06:03:53;9.50;;;3.60;;
65853;SDS011;52627;48.838;2.402;2022-11-20T06:06:20;7.70;;;3.60;;
65853;SDS011;52627;48.838;2.402;2022-11-20T06:08:47;10.50;;;4.00;;
65853;SDS011;52627;48.838;2.402;2022-11-20T06:11:16;13.20;;;4.70;;
65853;SDS011;52627;48.838;2.402;2022-11-20T06:13:44;7.50;;;3.50;;
65853;SDS011;52627;48.838;2.402;2022-11-20T06:16:13;9.20;;;4.40;;
65853;SDS011;52627;48.838;2.402;2022-11-20T06:18:41;8.70;;;3.90;;
65853;SDS011;52627;48.838;2.402;2022-11-20T06:21:12;8.30;;;3.70;;
65853;SDS011;52627;48.838;2.402;2022-11-20T06:23:40;8.10;;;3.70;;
65853;SDS011;52627;48.838;2.402;2022-11-20T06:26:10;8.00;;;3.30;;
65853;SDS011;52627;48.838;2.402;2022-11-20T06:28:38;9.80;;;5.30;;
65853;SDS011;52627;48.838;2.402;2022-11-20T06:31:06;6.90;;;4.10;;
65853;SDS011;52627;48.838;2.402;2022-11-20T06:33:34;9.20;;;5.00;;
65853;SDS011;52627;48.838;2.402;2022-11-20T06:36:04;13.50;;;4.30;;
65853;SDS011;52627;48.838;2.402;2022-11-20T06:38:37;9.70;;;4.50;;
65853;SDS011;52627;48.838;2.402;2022-11-20T06:41:06;7.10;;;4.10;;
65853;SDS011;52627;48.838;2.402;2022-11-20T06:43:39;8.90;;;4.30;;
65853;SDS011;52627;48.838;2.402;2022-11-20T06:46:06;9.50;;;4.00;;
65853;SDS011;52627;48.838;2.402;2022-11-20T06:48:34;10.50;;;4.50;;
65853;SDS011;52627;48.838;2.402;2022-11-20T06:51:06;7.90;;;4.10;;
65853;SDS011;52627;48.838;2.402;2022-11-20T06:53:34;8.90;;;4.50;;
65853;SDS011;52627;48.838;2.402;2022-11-20T06:56:01;5.40;;;3.60;;
65853;SDS011;52627;48.838;2.402;2022-11-20T06:58:31;9.40;;;4.00;;
65853;SDS011;52627;48.838;2.402;2022-11-20T07:01:03;8.20;;;4.20;;
65853;SDS011;52627;48.838;2.402;2022-11-20T07:03:31;7.80;;;4.10;;
65853;SDS011;52627;48.838;2.402;2022-11-20T07:06:00;6.50;;;4.20;;
65853;SDS011;52627;48.838;2.402;2022-11-20T07:08:27;10.10;;;4.40;;
65853;SDS011;52627;48.838;2.402;2022-11-20T07:11:03;8.60;;;4.80;;
65853;SDS011;52627;48.838;2.402;2022-11-20T07:13:32;6.60;;;3.90;;
65853;SDS011;52627;48.838;2.402;2022-11-20T07:16:01;6.50;;;4.30;;
65853;SDS011;52627;48.838;2.402;2022-11-20T07:18:32;9.50;;;3.90;;
65853;SDS011;52627;48.838;2.402;2022-11-20T07:21:03;10.10;;;4.30;;
65853;SDS011;52627;48.838;2.402;2022-11-20T07:23:32;10.40;;;4.30;;
65853;SDS011;52627;48.838;2.402;2022-11-20T07:26:17;8.10;;;4.20;;
65853;SDS011;52627;48.838;2.402;2022-11-20T07:28:44;7.50;;;4.00;;
65853;SDS011;52627;48.838;2.402;2022-11-20T07:31:12;8.80;;;3.80;;
65853;SDS011;52627;48.838;2.402;2022-11-20T07:33:45;8.70;;;3.90;;
65853;SDS011;52627;48.838;2.402;2022-11-20T07:36:13;7.40;;;3.60;;
65853;SDS011;52627;48.838;2.402;2022-11-20T07:38:40;7.50;;;3.80;;
65853;SDS011;52627;48.838;2.402;2022-11-20T07:41:06;12.00;;;4.20;;
65853;SDS011;52627;48.838;2.402;2022-11-20T07:43:33;7.90;;;3.90;;
65853;SDS011;52627;48.838;2.402;2022-11-20T07:46:06;6.90;;;3.80;;
65853;SDS011;52627;48.838;2.402;2022-11-20T07:48:33;7.20;;;3.50;;
65853;SDS011;52627;48.838;2.402;2022-11-20T07:51:00;9.10;;;4.50;;
65853;SDS011;52627;48.838;2.402;2022-11-20T07:53:27;8.90;;;5.00;;
65853;SDS011;52627;48.838;2.402;2022-11-20T07:55:54;10.00;;;3.90;;
65853;SDS011;52627;48.838;2.402;2022-11-20T07:58:21;7.50;;;3.60;;
65853;SDS011;52627;48.838;2.402;2022-11-20T08:00:48;9.30;;;4.10;;
65853;SDS011;52627;48.838;2.402;2022-11-20T08:03:15;6.60;;;3.50;;
65853;SDS011;52627;48.838;2.402;2022-11-20T08:05:50;7.20;;;3.70;;
65853;SDS011;52627;48.838;2.402;2022-11-20T08:08:17;7.30;;;3.50;;
65853;SDS011;52627;48.838;2.402;2022-11-20T08:10:45;7.40;;;3.80;;
65853;SDS011;52627;48.838;2.402;2022-11-20T08:13:12;8.90;;;3.40;;
65853;SDS011;52627;48.838;2.402;2022-11-20T08:15:57;7.60;;;4.10;;
65853;SDS011;52627;48.838;2.402;2022-11-20T08:18:24;6.80;;;3.30;;
65853;SDS011;52627;48.838;2.402;2022-11-20T08:21:03;8.70;;;3.70;;
65853;SDS011;52627;48.838;2.402;2022-11-20T08:23:30;9.10;;;3.90;;
65853;SDS011;52627;48.838;2.402;2022-11-20T08:25:57;6.90;;;3.70;;
65853;SDS011;52627;48.838;2.402;2022-11-20T08:28:24;9.10;;;3.60;;
65853;SDS011;52627;48.838;2.402;2022-11-20T08:30:51;8.60;;;4.20;;
65853;SDS011;52627;48.838;2.402;2022-11-20T08:33:18;11.90;;;5.40;;
65853;SDS011;52627;48.838;2.402;2022-11-20T08:35:45;7.40;;;4.10;;
65853;SDS011;52627;48.838;2.402;2022-11-20T08:38:12;10.90;;;4.60;;
65853;SDS011;52627;48.838;2.402;2022-11-20T08:40:39;12.10;;;5.80;;
65853;SDS011;52627;48.838;2.402;2022-11-20T08:43:06;10.20;;;4.30;;
65853;SDS011;52627;48.838;2.402;2022-11-20T08:45:33;12.50;;;4.80;;
65853;SDS011;52627;48.838;2.402;2022-11-20T08:48:02;8.40;;;4.50;;
65853;SDS011;52627;48.838;2.402;2022-11-20T08:50:30;10.00;;;4.10;;
65853;SDS011;52627;48.838;2.402;2022-11-20T08:53:05;8.00;;;5.10;;
65853;SDS011;52627;48.838;2.402;2022-11-20T08:55:32;9.70;;;4.50;;
65853;SDS011;52627;48.838;2.402;2022-11-20T08:58:03;9.50;;;4.80;;
65853;SDS011;52627;48.838;2.402;2022-11-20T09:00:31;10.10;;;4.90;;
65853;SDS011;52627;48.838;2.402;2022-11-20T09:02:58;12.10;;;5.40;;
65853;SDS011;52627;48.838;2.402;2022-11-20T09:05:27;9.80;;;4.80;;
65853;SDS011;52627;48.838;2.402;2022-11-20T09:07:58;10.70;;;5.80;;
65853;SDS011;52627;48.838;2.402;2022-11-20T09:10:26;8.50;;;4.80;;
65853;SDS011;52627;48.838;2.402;2022-11-20T09:12:54;10.10;;;5.60;;
65853;SDS011;52627;48.838;2.402;2022-11-20T09:15:22;9.20;;;4.60;;
65853;SDS011;52627;48.838;2.402;2022-11-20T09:17:59;10.80;;;4.60;;
65853;SDS011;52627;48.838;2.402;2022-11-20T09:20:28;10.60;;;4.10;;
65853;SDS011;52627;48.838;2.402;2022-11-20T09:22:56;8.40;;;4.30;;
65853;SDS011;52627;48.838;2.402;2022-11-20T09:25:23;8.20;;;4.00;;
65853;SDS011;52627;48.838;2.402;2022-11-20T09:27:58;10.50;;;4.30;;
65853;SDS011;52627;48.838;2.402;2022-11-20T09:30:26;8.80;;;4.20;;
65853;SDS011;52627;48.838;2.402;2022-11-20T09:32:53;11.30;;;4.40;;
65853;SDS011;52627;48.838;2.402;2022-11-20T09:35:20;7.60;;;4.70;;
65853;SDS011;52627;48.838;2.402;2022-11-20T09:37:46;11.80;;;4.60;;
65853;SDS011;52627;48.838;2.402;2022-11-20T09:40:21;10.20;;;4.30;;
65853;SDS011;52627;48.838;2.402;2022-11-20T09:42:59;9.80;;;5.20;;
65853;SDS011;52627;48.838;2.402;2022-11-20T09:48:44;10.70;;;4.20;;
65853;SDS011;52627;48.838;2.402;2022-11-20T09:51:37;8.70;;;3.90;;
65853;SDS011;52627;48.838;2.402;2022-11-20T09:54:17;11.90;;;4.30;;
65853;SDS011;52627;48.838;2.402;2022-11-20T09:56:53;9.80;;;5.00;;
65853;SDS011;52627;48.838;2.402;2022-11-20T09:59:41;7.20;;;3.90;;
65853;SDS011;52627;48.838;2.402;2022-11-20T10:02:42;7.90;;;3.70;;
65853;SDS011;52627;48.838;2.402;2022-11-20T10:06:02;9.20;;;4.60;;
65853;SDS011;52627;48.838;2.402;2022-11-20T10:08:19;9.30;;;3.80;;
65853;SDS011;52627;48.838;2.402;2022-11-20T10:10:53;6.90;;;4.00;;
65853;SDS011;52627;48.838;2.402;2022-11-20T10:13:53;8.70;;;4.20;;
65853;SDS011;52627;48.838;2.402;2022-11-20T10:16:36;9.00;;;3.90;;
65853;SDS011;52627;48.838;2.402;2022-11-20T10:19:14;8.20;;;3.80;;
65853;SDS011;52627;48.838;2.402;2022-11-20T10:25:49;6.90;;;3.70;;
65853;SDS011;52627;48.838;2.402;2022-11-20T10:31:36;8.00;;;4.00;;
65853;SDS011;52627;48.838;2.402;2022-11-20T10:34:18;11.50;;;5.20;;
65853;SDS011;52627;48.838;2.402;2022-11-20T10:36:54;9.80;;;4.10;;
65853;SDS011;52627;48.838;2.402;2022-11-20T10:41:55;12.10;;;4.20;;
65853;SDS011;52627;48.838;2.402;2022-11-20T10:44:27;11.20;;;4.70;;
65853;SDS011;52627;48.838;2.402;2022-11-20T10:47:16;7.60;;;3.80;;
65853;SDS011;52627;48.838;2.402;2022-11-20T10:49:48;7.00;;;3.70;;
65853;SDS011;52627;48.838;2.402;2022-11-20T10:55:11;8.80;;;4.60;;
65853;SDS011;52627;48.838;2.402;2022-11-20T11:00:36;9.10;;;3.60;;
65853;SDS011;52627;48.838;2.402;2022-11-20T11:03:24;7.70;;;4.00;;
65853;SDS011;52627;48.838;2.402;2022-11-20T11:06:03;7.60;;;3.40;;
65853;SDS011;52627;48.838;2.402;2022-11-20T11:08:38;9.20;;;4.20;;
65853;SDS011;52627;48.838;2.402;2022-11-20T11:11:30;7.10;;;3.00;;
65853;SDS011;52627;48.838;2.402;2022-11-20T11:14:12;7.20;;;3.20;;
65853;SDS011;52627;48.838;2.402;2022-11-20T11:16:50;7.40;;;3.60;;
65853;SDS011;52627;48.838;2.402;2022-11-20T11:19:19;7.90;;;3.70;;
65853;SDS011;52627;48.838;2.402;2022-11-20T11:21:56;7.20;;;3.40;;
65853;SDS011;52627;48.838;2.402;2022-11-20T11:24:28;7.00;;;3.40;;
65853;SDS011;52627;48.838;2.402;2022-11-20T11:27:14;7.80;;;3.40;;
65853;SDS011;52627;48.838;2.402;2022-11-20T11:29:47;8.40;;;3.50;;
65853;SDS011;52627;48.838;2.402;2022-11-20T11:32:21;6.30;;;3.40;;
65853;SDS011;52627;48.838;2.402;2022-11-20T11:35:22;7.00;;;3.90;;
65853;SDS011;52627;48.838;2.402;2022-11-20T11:37:52;7.00;;;3.50;;
65853;SDS011;52627;48.838;2.402;2022-11-20T11:40:21;7.00;;;3.40;;
65853;SDS011;52627;48.838;2.402;2022-11-20T11:42:56;7.10;;;3.60;;
65853;SDS011;52627;48.838;2.402;2022-11-20T11:45:24;8.70;;;3.80;;
65853;SDS011;52627;48.838;2.402;2022-11-20T11:47:54;10.30;;;5.10;;
65853;SDS011;52627;48.838;2.402;2022-11-20T11:50:28;9.00;;;4.20;;
65853;SDS011;52627;48.838;2.402;2022-11-20T11:53:09;7.20;;;3.20;;
65853;SDS011;52627;48.838;2.402;2022-11-20T11:55:45;4.50;;;2.50;;
65853;SDS011;52627;48.838;2.402;2022-11-20T11:58:21;4.10;;;2.50;;
65853;SDS011;52627;48.838;2.402;2022-11-20T12:01:00;6.40;;;2.50;;
65853;SDS011;52627;48.838;2.402;2022-11-20T12:03:38;4.90;;;2.20;;
65853;SDS011;52627;48.838;2.402;2022-11-20T12:06:13;5.80;;;2.90;;
65853;SDS011;52627;48.838;2.402;2022-11-20T12:08:51;4.50;;;2.40;;
65853;SDS011;52627;48.838;2.402;2022-11-20T12:14:14;4.30;;;2.00;;
65853;SDS011;52627;48.838;2.402;2022-11-20T12:16:46;5.20;;;2.10;;
65853;SDS011;52627;48.838;2.402;2022-11-20T12:19:14;4.00;;;2.40;;
65853;SDS011;52627;48.838;2.402;2022-11-20T12:24:56;5.50;;;2.90;;
65853;SDS011;52627;48.838;2.402;2022-11-20T12:30:24;4.50;;;2.50;;
65853;SDS011;52627;48.838;2.402;2022-11-20T12:38:48;5.60;;;2.90;;
65853;SDS011;52627;48.838;2.402;2022-11-20T13:00:22;6.10;;;2.60;;
65853;SDS011;52627;48.838;2.402;2022-11-20T13:08:12;5.40;;;2.40;;
65853;SDS011;52627;48.838;2.402;2022-11-20T13:10:55;5.50;;;3.10;;
65853;SDS011;52627;48.838;2.402;2022-11-20T13:13:33;6.00;;;3.10;;
65853;SDS011;52627;48.838;2.402;2022-11-20T13:18:44;4.80;;;2.60;;
65853;SDS011;52627;48.838;2.402;2022-11-20T13:21:20;4.10;;;2.60;;
65853;SDS011;52627;48.838;2.402;2022-11-20T13:23:48;5.20;;;2.70;;
65853;SDS011;52627;48.838;2.402;2022-11-20T13:26:22;6.70;;;3.00;;
65853;SDS011;52627;48.838;2.402;2022-11-20T13:29:19;4.60;;;2.70;;
65853;SDS011;52627;48.838;2.402;2022-11-20T13:31:47;5.40;;;2.40;;
65853;SDS011;52627;48.838;2.402;2022-11-20T13:34:27;5.00;;;2.70;;
65853;SDS011;52627;48.838;2.402;2022-11-20T13:36:56;4.70;;;2.60;;
65853;SDS011;52627;48.838;2.402;2022-11-20T13:39:34;5.10;;;3.30;;
65853;SDS011;52627;48.838;2.402;2022-11-20T13:42:20;7.20;;;3.00;;
65853;SDS011;52627;48.838;2.402;2022-11-20T13:45:01;8.20;;;3.00;;
65853;SDS011;52627;48.838;2.402;2022-11-20T13:47:29;6.20;;;2.70;;
65853;SDS011;52627;48.838;2.402;2022-11-20T13:49:58;6.20;;;2.60;;
65853;SDS011;52627;48.838;2.402;2022-11-20T13:55:42;7.40;;;2.40;;
65853;SDS011;52627;48.838;2.402;2022-11-20T14:01:21;5.10;;;2.40;;
65853;SDS011;52627;48.838;2.402;2022-11-20T14:03:50;6.90;;;2.90;;
65853;SDS011;52627;48.838;2.402;2022-11-20T14:06:39;8.30;;;2.90;;
65853;SDS011;52627;48.838;2.402;2022-11-20T14:09:12;6.20;;;2.60;;
65853;SDS011;52627;48.838;2.402;2022-11-20T14:11:46;7.80;;;2.80;;
65853;SDS011;52627;48.838;2.402;2022-11-20T14:14:19;8.10;;;3.20;;
65853;SDS011;52627;48.838;2.402;2022-11-20T14:16:49;6.50;;;2.80;;
65853;SDS011;52627;48.838;2.402;2022-11-20T14:21:49;8.40;;;2.80;;
65853;SDS011;52627;48.838;2.402;2022-11-20T14:24:23;7.30;;;2.80;;
65853;SDS011;52627;48.838;2.402;2022-11-20T14:26:51;9.60;;;3.40;;
65853;SDS011;52627;48.838;2.402;2022-11-20T14:29:22;7.40;;;3.20;;
65853;SDS011;52627;48.838;2.402;2022-11-20T14:31:54;6.50;;;2.40;;
65853;SDS011;52627;48.838;2.402;2022-11-20T14:34:27;10.70;;;3.10;;
65853;SDS011;52627;48.838;2.402;2022-11-20T14:36:58;8.10;;;2.70;;
65853;SDS011;52627;48.838;2.402;2022-11-20T14:39:37;7.00;;;2.40;;
65853;SDS011;52627;48.838;2.402;2022-11-20T14:42:19;8.10;;;2.70;;
65853;SDS011;52627;48.838;2.402;2022-11-20T14:44:47;7.60;;;2.90;;
65853;SDS011;52627;48.838;2.402;2022-11-20T14:47:18;8.80;;;2.70;;
65853;SDS011;52627;48.838;2.402;2022-11-20T14:49:47;8.20;;;2.70;;
65853;SDS011;52627;48.838;2.402;2022-11-20T14:52:18;10.10;;;2.70;;
65853;SDS011;52627;48.838;2.402;2022-11-20T14:54:55;6.80;;;2.50;;
65853;SDS011;52627;48.838;2.402;2022-11-20T14:57:34;6.40;;;2.80;;
65853;SDS011;52627;48.838;2.402;2022-11-20T15:02:34;8.70;;;3.10;;
65853;SDS011;52627;48.838;2.402;2022-11-20T15:05:07;13.90;;;3.10;;
65853;SDS011;52627;48.838;2.402;2022-11-20T15:07:37;8.90;;;2.90;;
65853;SDS011;52627;48.838;2.402;2022-11-20T15:10:19;12.80;;;3.10;;
65853;SDS011;52627;48.838;2.402;2022-11-20T15:12:55;11.20;;;2.90;;
65853;SDS011;52627;48.838;2.402;2022-11-20T15:15:36;13.20;;;3.40;;
65853;SDS011;52627;48.838;2.402;2022-11-20T15:18:13;10.30;;;3.20;;
65853;SDS011;52627;48.838;2.402;2022-11-20T15:20:43;10.40;;;2.70;;
65853;SDS011;52627;48.838;2.402;2022-11-20T15:23:15;13.50;;;2.80;;
65853;SDS011;52627;48.838;2.402;2022-11-20T15:25:45;9.60;;;2.30;;
65853;SDS011;52627;48.838;2.402;2022-11-20T15:28:21;9.20;;;2.80;;
65853;SDS011;52627;48.838;2.402;2022-11-20T15:30:49;9.20;;;2.60;;
65853;SDS011;52627;48.838;2.402;2022-11-20T15:33:17;12.90;;;3.00;;
65853;SDS011;52627;48.838;2.402;2022-11-20T15:35:44;10.60;;;3.30;;
65853;SDS011;52627;48.838;2.402;2022-11-20T15:38:11;10.80;;;3.20;;
65853;SDS011;52627;48.838;2.402;2022-11-20T15:40:39;14.10;;;3.10;;
65853;SDS011;52627;48.838;2.402;2022-11-20T15:43:06;11.30;;;2.80;;
65853;SDS011;52627;48.838;2.402;2022-11-20T15:45:45;10.70;;;2.70;;
65853;SDS011;52627;48.838;2.402;2022-11-20T15:48:17;13.40;;;2.40;;
65853;SDS011;52627;48.838;2.402;2022-11-20T15:51:02;12.20;;;2.70;;
65853;SDS011;52627;48.838;2.402;2022-11-20T15:53:30;10.10;;;2.70;;
65853;SDS011;52627;48.838;2.402;2022-11-20T15:55:57;8.10;;;2.50;;
65853;SDS011;52627;48.838;2.402;2022-11-20T15:58:23;8.40;;;2.20;;
65853;SDS011;52627;48.838;2.402;2022-11-20T16:00:50;11.00;;;2.20;;
65853;SDS011;52627;48.838;2.402;2022-11-20T16:03:18;8.50;;;1.80;;
65853;SDS011;52627;48.838;2.402;2022-11-20T16:05:45;4.60;;;1.90;;
65853;SDS011;52627;48.838;2.402;2022-11-20T16:08:13;7.40;;;1.80;;
65853;SDS011;52627;48.838;2.402;2022-11-20T16:10:40;7.60;;;2.00;;
65853;SDS011;52627;48.838;2.402;2022-11-20T16:13:15;9.00;;;2.00;;
65853;SDS011;52627;48.838;2.402;2022-11-20T16:16:05;7.70;;;2.20;;
65853;SDS011;52627;48.838;2.402;2022-11-20T16:18:35;8.30;;;1.70;;
65853;SDS011;52627;48.838;2.402;2022-11-20T16:21:02;5.60;;;1.70;;
65853;SDS011;52627;48.838;2.402;2022-11-20T16:23:29;6.90;;;1.60;;
65853;SDS011;52627;48.838;2.402;2022-11-20T16:25:56;5.30;;;1.50;;
65853;SDS011;52627;48.838;2.402;2022-11-20T16:28:22;6.90;;;1.60;;
65853;SDS011;52627;48.838;2.402;2022-11-20T16:30:49;6.50;;;1.80;;
65853;SDS011;52627;48.838;2.402;2022-11-20T16:33:16;6.20;;;1.40;;
65853;SDS011;52627;48.838;2.402;2022-11-20T16:35:44;5.70;;;2.20;;